Hlavní strana
METAR-TAF:

METAR-TAF

Letiště :

Letiště Bělehrad

Bělehrad, Srbsko

zeměpisná šířka: 44-49N, zeměpisná délka: 020-17E, výška: 96 m

Aktuální stav počasí

Zpráva byla vytvořena před 17 minutami, v 11:00 UTC
Severovýchodní vítr 5 kt, proměnlivý mezi severním a východním
Teplota 16°C
Vlhkost vzduchu 51%
Tlak 1034 hPa
Viditelnost: 7000 m

METAR: LYBE 251100Z 05005KT 360V090 7000 NSC 16/06 Q1034 NOSIG

Čas: 12:17 (11:17 UTC)

Předpověď počasí

Zpráva byla vytvořena před 6 hodinami a 17 minutami, v 05:00 UTC
Předpověď platná od 25 v 06 UTC do 26 v 06 UTC
Východoseverovýchodní vítr 4 kt
Viditelnost: 2000 m
kouřmo
Dočasný
od 25 v 06 UTC do 25 v 07 UTC
Viditelnost: 0600 m
mlha
Změna
od 25 v 08 UTC do 25 v 10 UTC
Viditelnost: 6000 m
Změna
od 25 v 19 UTC do 25 v 21 UTC
Viditelnost: 4000 m
kouřmo
Dočasný
od 26 v 02 UTC do 26 v 06 UTC
Viditelnost: 1200 m

TAF: LYBE 250500Z 2506/2606 06004KT 2000 BR NSC TX17/2513Z TN03/2605Z TEMPO 2506/2507 0600 FG BECMG 2508/2510 6000 NSW BECMG 2519/2521 4000 BR TEMPO 2602/2606 1200

Stav a předpovědi počasí z více než 4 000 letišť (zprávy METAR a TAF).

Červené a žluté tečky na mapě představují dostupné meteorologické stanice.

Když kurzor umístíte na tečku, zobrazí se název stanice.

Pak kliknutím zobrazíte stav a předpověď počasí.

Chcete-li změnit mapu, kliknutím na zelené tlačítko se znaménkem +mapu přiblížíte, kliknutím na zelené tlačítko se znaménkem – mapu oddálíte a kliknutím na zelené šipky přejdete na sousední mapy.


METAR-TAF: